createdAt,value
2018-10-02T00:00:51.968Z,1.37
2018-10-02T00:03:20.465Z,1.50
2018-10-02T00:05:49.504Z,1.60
2018-10-02T00:08:19.555Z,1.30
2018-10-02T00:10:53.331Z,1.50
2018-10-02T00:13:27.489Z,1.27
2018-10-02T00:15:56.089Z,1.40
2018-10-02T00:18:25.016Z,1.70
2018-10-02T00:20:54.115Z,1.30
2018-10-02T00:23:22.775Z,1.40
2018-10-02T00:25:51.435Z,0.87
2018-10-02T00:28:20.083Z,1.67
2018-10-02T00:30:48.814Z,1.20
2018-10-02T00:33:17.312Z,0.97
2018-10-02T00:35:47.405Z,0.90
2018-10-02T00:38:16.213Z,0.80
2018-10-02T00:40:45.033Z,1.00
2018-10-02T00:43:13.742Z,1.23
2018-10-02T00:45:42.244Z,0.73
2018-10-02T00:48:11.160Z,0.83
2018-10-02T00:50:39.899Z,0.60
2018-10-02T00:53:09.024Z,1.10
2018-10-02T00:55:37.446Z,1.00
2018-10-02T00:58:06.339Z,0.97
2018-10-02T01:00:35.038Z,0.90
2018-10-02T01:03:04.041Z,1.10
2018-10-02T01:05:32.806Z,1.10
2018-10-02T01:08:01.539Z,0.90
2018-10-02T01:10:30.483Z,0.97
2018-10-02T01:12:58.992Z,0.80
2018-10-02T01:15:27.698Z,1.13
2018-10-02T01:17:56.618Z,0.97
2018-10-02T01:20:25.758Z,1.10
2018-10-02T01:22:54.321Z,1.07
2018-10-02T01:25:23.230Z,1.03
2018-10-02T01:27:51.929Z,1.17
2018-10-02T01:30:20.901Z,1.30
2018-10-02T01:32:49.762Z,0.90
2018-10-02T01:35:18.218Z,1.00
2018-10-02T01:37:47.209Z,1.03
2018-10-02T01:40:16.141Z,0.97
2018-10-02T01:42:44.897Z,1.00
2018-10-02T01:45:13.551Z,0.57
2018-10-02T01:47:42.029Z,1.23
2018-10-02T01:50:10.938Z,1.10
2018-10-02T01:52:39.492Z,0.97
2018-10-02T01:55:09.053Z,0.80
2018-10-02T01:57:37.821Z,1.50
2018-10-02T02:00:06.968Z,1.30
2018-10-02T02:02:35.596Z,1.43
2018-10-02T02:05:04.563Z,1.43
2018-10-02T02:07:33.767Z,1.10
2018-10-02T02:10:03.063Z,1.50
2018-10-02T02:12:31.723Z,1.07
2018-10-02T02:15:00.260Z,1.40
2018-10-02T02:17:29.124Z,1.53
2018-10-02T02:19:58.209Z,1.53
2018-10-02T02:22:27.070Z,1.50
2018-10-02T02:24:55.536Z,1.47
2018-10-02T02:27:24.545Z,1.90
2018-10-02T02:29:53.164Z,1.70
2018-10-02T02:32:22.732Z,1.63
2018-10-02T02:34:51.425Z,1.70
2018-10-02T02:37:20.284Z,1.90
2018-10-02T02:39:49.350Z,1.80
2018-10-02T02:42:18.757Z,1.80
2018-10-02T02:44:47.505Z,2.40
2018-10-02T02:47:21.227Z,1.80
2018-10-02T02:49:55.323Z,2.47
2018-10-02T02:52:26.059Z,2.30
2018-10-02T02:54:55.553Z,2.60
2018-10-02T02:57:24.068Z,2.87
2018-10-02T02:59:52.626Z,3.70
2018-10-02T03:02:21.630Z,3.00
2018-10-02T03:04:50.718Z,2.73
2018-10-02T03:07:19.561Z,2.73
2018-10-02T03:09:48.940Z,3.47
2018-10-02T03:12:17.944Z,3.33
2018-10-02T03:14:47.055Z,4.30
2018-10-02T03:17:16.551Z,3.97
2018-10-02T03:19:45.197Z,4.00
2018-10-02T03:22:13.753Z,4.00
2018-10-02T03:24:42.653Z,4.27
2018-10-02T03:27:12.152Z,3.87
2018-10-02T03:29:40.778Z,4.70
2018-10-02T03:32:09.941Z,4.60
2018-10-02T03:34:39.003Z,3.97
2018-10-02T03:37:07.823Z,4.10
2018-10-02T03:39:37.391Z,4.10
2018-10-02T03:42:11.524Z,4.27
2018-10-02T03:44:40.610Z,4.40
2018-10-02T03:47:09.482Z,4.80
2018-10-02T03:49:38.447Z,4.40
2018-10-02T03:52:07.404Z,4.23
2018-10-02T03:54:37.128Z,4.80
2018-10-02T03:57:05.791Z,4.10
2018-10-02T03:59:34.349Z,3.43
2018-10-02T04:02:03.580Z,3.13
2018-10-02T04:04:32.160Z,3.67
2018-10-02T04:07:01.100Z,3.40
2018-10-02T04:09:30.263Z,2.80
2018-10-02T04:11:59.703Z,2.60
2018-10-02T04:14:28.760Z,3.03
2018-10-02T04:16:57.868Z,3.30
2018-10-02T04:19:27.053Z,2.77
2018-10-02T04:21:55.799Z,2.30
2018-10-02T04:24:24.997Z,2.70
2018-10-02T04:26:53.825Z,2.50
2018-10-02T04:29:22.699Z,2.80
2018-10-02T04:31:51.160Z,2.77
2018-10-02T04:34:20.467Z,2.20
2018-10-02T04:36:49.384Z,3.20
2018-10-02T04:39:18.785Z,3.20
2018-10-02T04:41:47.741Z,2.97
2018-10-02T04:44:17.026Z,2.53
2018-10-02T04:46:45.614Z,2.50
2018-10-02T04:49:14.471Z,2.60
2018-10-02T04:51:43.076Z,2.80
2018-10-02T04:54:11.950Z,2.90
2018-10-02T04:56:40.912Z,2.83
2018-10-02T04:59:09.506Z,3.30
2018-10-02T05:01:38.189Z,3.10
2018-10-02T05:04:06.786Z,2.73
2018-10-02T05:06:36.076Z,2.60
2018-10-02T05:09:06.569Z,2.73
2018-10-02T05:11:35.801Z,2.40
2018-10-02T05:14:04.873Z,2.73
2018-10-02T05:16:33.854Z,2.70
2018-10-02T05:19:03.570Z,2.77
2018-10-02T05:21:32.695Z,2.70
2018-10-02T05:24:01.712Z,3.30
2018-10-02T05:26:30.909Z,2.90
2018-10-02T05:29:00.766Z,2.83
2018-10-02T05:31:29.886Z,1.90
2018-10-02T05:33:58.523Z,1.53
2018-10-02T05:36:27.401Z,2.10
2018-10-02T05:38:56.112Z,1.50
2018-10-02T05:41:29.093Z,2.40
2018-10-02T05:43:58.326Z,2.30
2018-10-02T05:46:27.396Z,1.90
2018-10-02T05:48:56.252Z,1.63
2018-10-02T05:51:25.121Z,1.80
2018-10-02T05:53:53.874Z,1.83
2018-10-02T05:56:23.282Z,2.13
2018-10-02T05:58:51.932Z,2.13
2018-10-02T06:01:20.945Z,1.80
2018-10-02T06:03:49.951Z,2.03
2018-10-02T06:06:18.660Z,1.83
2018-10-02T06:08:47.589Z,1.93
2018-10-02T06:11:16.446Z,1.63
2018-10-02T06:13:45.853Z,2.23
2018-10-02T06:16:15.480Z,2.00
2018-10-02T06:18:45.944Z,1.83
2018-10-02T06:21:14.630Z,1.63
2018-10-02T06:23:44.246Z,2.40
2018-10-02T06:26:13.173Z,1.93
2018-10-02T06:28:42.317Z,2.20
2018-10-02T06:31:11.964Z,1.90
2018-10-02T06:33:41.414Z,3.23
2018-10-02T06:36:10.638Z,1.93
2018-10-02T06:38:39.970Z,1.80
2018-10-02T06:41:09.254Z,1.90
2018-10-02T06:43:38.344Z,1.97
2018-10-02T06:46:07.796Z,2.07
2018-10-02T06:48:36.755Z,1.50
2018-10-02T06:51:06.107Z,1.97
2018-10-02T06:53:36.008Z,3.30
2018-10-02T06:56:18.171Z,2.20
2018-10-02T06:58:47.163Z,2.10
2018-10-02T07:01:15.930Z,2.77
2018-10-02T07:03:44.879Z,2.33
2018-10-02T07:06:13.839Z,2.30
2018-10-02T07:08:43.216Z,2.80
2018-10-02T07:11:13.753Z,2.67
2018-10-02T07:13:42.634Z,3.20
2018-10-02T07:16:11.907Z,2.20
2018-10-02T07:18:40.824Z,2.67
2018-10-02T07:21:09.710Z,2.27
2018-10-02T07:23:39.808Z,2.10
2018-10-02T07:26:09.200Z,2.80
2018-10-02T07:28:38.582Z,2.20
2018-10-02T07:31:08.494Z,2.97
2018-10-02T07:33:36.986Z,1.87
2018-10-02T07:36:05.648Z,1.90
2018-10-02T07:38:34.828Z,2.00
2018-10-02T07:41:04.119Z,2.27
2018-10-02T07:43:33.373Z,2.43
2018-10-02T07:46:02.504Z,1.90
2018-10-02T07:48:33.189Z,1.90
2018-10-02T07:51:02.478Z,1.93
2018-10-02T07:53:31.058Z,2.27
2018-10-02T07:55:59.984Z,1.83
2018-10-02T07:58:30.947Z,2.03
2018-10-02T08:01:00.369Z,1.87
2018-10-02T08:03:28.993Z,1.77
2018-10-02T08:05:58.656Z,2.77
2018-10-02T08:08:28.045Z,2.87
2018-10-02T08:10:59.178Z,2.50
2018-10-02T08:13:29.386Z,3.00
2018-10-02T08:15:58.367Z,3.53
2018-10-02T08:18:27.813Z,3.07
2018-10-02T08:20:56.741Z,2.87
2018-10-02T08:23:25.941Z,3.13
2018-10-02T08:25:55.297Z,2.60
2018-10-02T08:28:23.877Z,3.13
2018-10-02T08:30:52.939Z,2.43
2018-10-02T08:33:22.487Z,2.60
2018-10-02T08:35:51.203Z,3.40
2018-10-02T08:38:19.864Z,2.97
2018-10-02T08:40:49.165Z,2.93
2018-10-02T08:43:18.154Z,3.20
2018-10-02T08:45:50.619Z,2.37
2018-10-02T08:48:19.478Z,3.00
2018-10-02T08:50:48.095Z,2.47
2018-10-02T08:53:19.401Z,3.10
2018-10-02T08:55:48.324Z,3.17
2018-10-02T08:58:17.639Z,3.00
2018-10-02T09:00:46.995Z,2.57
2018-10-02T09:03:16.153Z,2.87
2018-10-02T09:05:45.546Z,2.97
2018-10-02T09:08:14.745Z,2.23
2018-10-02T09:10:43.583Z,2.90
2018-10-02T09:13:12.410Z,3.13
2018-10-02T09:15:41.324Z,2.97
2018-10-02T09:18:10.017Z,2.20
2018-10-02T09:20:39.240Z,2.43
2018-10-02T09:23:07.851Z,2.97
2018-10-02T09:25:37.444Z,2.70
2018-10-02T09:28:06.495Z,1.93
2018-10-02T09:30:40.906Z,2.23
2018-10-02T09:33:15.326Z,2.57
2018-10-02T09:35:50.313Z,2.50
2018-10-02T09:38:24.488Z,2.50
2018-10-02T09:40:59.523Z,2.07
2018-10-02T09:43:39.538Z,1.93
2018-10-02T09:46:08.354Z,2.30
2018-10-02T09:48:37.276Z,2.77
2018-10-02T09:51:10.451Z,2.33
2018-10-02T09:53:39.780Z,2.70
2018-10-02T09:56:08.901Z,2.20
2018-10-02T09:58:38.136Z,2.30
2018-10-02T10:01:11.147Z,3.17
2018-10-02T10:03:39.684Z,2.70
2018-10-02T10:06:08.678Z,2.60
2018-10-02T10:08:38.273Z,2.43
2018-10-02T10:11:08.057Z,2.93
2018-10-02T10:13:37.294Z,2.23
2018-10-02T10:16:06.710Z,2.10
2018-10-02T10:18:35.488Z,1.87
2018-10-02T10:21:04.081Z,2.20
2018-10-02T10:23:32.955Z,2.77
2018-10-02T10:26:03.071Z,2.20
2018-10-02T10:28:31.730Z,1.90
2018-10-02T10:31:00.718Z,2.50
2018-10-02T10:33:30.472Z,2.33
2018-10-02T10:35:59.648Z,2.43
2018-10-02T10:38:29.040Z,2.03
2018-10-02T10:40:58.885Z,1.93
2018-10-02T10:43:28.072Z,1.57
2018-10-02T10:45:57.228Z,2.40
2018-10-02T10:48:26.500Z,1.60
2018-10-02T10:50:55.665Z,2.20
2018-10-02T10:53:24.467Z,1.83
2018-10-02T10:55:54.199Z,2.03
2018-10-02T10:58:23.261Z,2.03
2018-10-02T11:00:52.106Z,2.10
2018-10-02T11:03:20.846Z,2.30
2018-10-02T11:05:50.477Z,1.93
2018-10-02T11:08:19.177Z,1.93
2018-10-02T11:10:49.016Z,1.83
2018-10-02T11:13:17.892Z,2.00
2018-10-02T11:15:46.806Z,2.33
2018-10-02T11:18:16.756Z,2.10
2018-10-02T11:20:45.834Z,1.80
2018-10-02T11:23:17.089Z,2.93
2018-10-02T11:25:45.827Z,2.23
2018-10-02T11:28:14.825Z,1.53
2018-10-02T11:30:45.088Z,1.93
2018-10-02T11:33:13.868Z,1.93
2018-10-02T11:35:43.701Z,1.80
2018-10-02T11:38:12.998Z,1.80
2018-10-02T11:40:41.935Z,1.87
2018-10-02T11:43:11.265Z,1.97
2018-10-02T11:45:40.300Z,1.90
2018-10-02T11:48:09.455Z,1.70
2018-10-02T11:50:38.735Z,1.43
2018-10-02T11:53:08.094Z,1.53
2018-10-02T11:55:37.070Z,1.80
2018-10-02T11:58:06.564Z,1.67
2018-10-02T12:00:35.561Z,1.67
2018-10-02T12:03:04.549Z,1.37
2018-10-02T12:05:34.535Z,1.60
2018-10-02T12:08:03.800Z,2.03
2018-10-02T12:10:32.690Z,1.80
2018-10-02T12:13:01.437Z,1.50
2018-10-02T12:15:30.675Z,1.40
2018-10-02T12:17:59.917Z,1.63
2018-10-02T12:20:28.733Z,1.47
2018-10-02T12:22:58.542Z,1.60
2018-10-02T12:25:27.340Z,1.40
2018-10-02T12:27:56.241Z,1.33
2018-10-02T12:30:25.209Z,1.40
2018-10-02T12:32:54.256Z,1.83
2018-10-02T12:35:24.526Z,1.60
2018-10-02T12:37:53.536Z,1.50
2018-10-02T12:40:22.585Z,1.70
2018-10-02T12:42:51.666Z,1.33
2018-10-02T12:45:21.360Z,1.57
2018-10-02T12:47:50.830Z,1.80
2018-10-02T12:50:19.738Z,1.60
2018-10-02T12:52:49.041Z,1.40
2018-10-02T12:55:17.838Z,1.60
2018-10-02T12:57:48.783Z,2.40
2018-10-02T13:00:17.933Z,2.00
2018-10-02T13:02:47.102Z,1.80
2018-10-02T13:05:16.236Z,1.60
2018-10-02T13:07:45.276Z,1.50
2018-10-02T13:10:14.739Z,1.60
2018-10-02T13:12:43.851Z,1.60
2018-10-02T13:15:13.249Z,1.87
2018-10-02T13:17:42.137Z,1.60
2018-10-02T13:20:15.958Z,1.43
2018-10-02T13:22:45.334Z,1.37
2018-10-02T13:25:18.348Z,1.80
2018-10-02T13:27:47.616Z,1.37
2018-10-02T13:30:17.101Z,1.67
2018-10-02T13:32:47.837Z,1.77
2018-10-02T13:35:17.191Z,1.70
2018-10-02T13:37:47.372Z,1.60
2018-10-02T13:40:16.070Z,1.40
2018-10-02T13:42:45.084Z,1.40
2018-10-02T13:45:14.120Z,1.67
2018-10-02T13:47:42.965Z,1.73
2018-10-02T13:50:12.003Z,1.47
2018-10-02T13:52:41.482Z,1.53
2018-10-02T13:55:11.715Z,1.87
2018-10-02T13:57:41.361Z,1.50
2018-10-02T14:00:11.514Z,1.30
2018-10-02T14:02:40.788Z,1.60
2018-10-02T14:05:09.359Z,1.33
2018-10-02T14:07:38.759Z,1.77
2018-10-02T14:10:07.985Z,1.47
2018-10-02T14:12:37.971Z,1.43
2018-10-02T14:15:11.962Z,1.30
2018-10-02T14:17:41.252Z,1.63
2018-10-02T14:20:10.831Z,1.80
2018-10-02T14:22:39.657Z,1.50
2018-10-02T14:25:08.339Z,1.83
2018-10-02T14:27:37.394Z,1.67
2018-10-02T14:30:08.709Z,1.80
2018-10-02T14:32:39.516Z,1.80
2018-10-02T14:35:08.987Z,1.50
2018-10-02T14:37:38.275Z,1.50
2018-10-02T14:40:07.327Z,1.77
2018-10-02T14:42:36.625Z,1.47
2018-10-02T14:45:05.950Z,1.40
2018-10-02T14:47:35.692Z,1.73
2018-10-02T14:50:05.020Z,2.00
2018-10-02T14:52:34.788Z,2.03
2018-10-02T14:55:04.083Z,1.80
2018-10-02T14:57:34.389Z,1.50
2018-10-02T15:00:03.829Z,1.87
2018-10-02T15:02:35.332Z,1.50
2018-10-02T15:05:05.022Z,1.67
2018-10-02T15:07:34.653Z,1.50
2018-10-02T15:10:06.202Z,2.20
2018-10-02T15:12:36.245Z,2.03
2018-10-02T15:15:05.396Z,1.83
2018-10-02T15:17:35.652Z,1.80
2018-10-02T15:20:04.699Z,2.07
2018-10-02T15:22:33.974Z,1.80
2018-10-02T15:25:05.288Z,2.07
2018-10-02T15:27:35.233Z,2.57
2018-10-02T15:30:04.140Z,2.10
2018-10-02T15:32:33.452Z,2.50
2018-10-02T15:35:02.882Z,1.80
2018-10-02T15:37:32.366Z,2.03
2018-10-02T15:40:02.193Z,1.97
2018-10-02T15:42:33.240Z,2.00
2018-10-02T15:45:02.657Z,2.40
2018-10-02T15:47:32.198Z,2.30
2018-10-02T15:50:02.090Z,2.00
2018-10-02T15:52:31.206Z,2.00
2018-10-02T15:55:00.508Z,3.03
2018-10-02T15:57:30.201Z,2.07
2018-10-02T15:59:59.291Z,2.43
2018-10-02T16:02:29.721Z,2.23
2018-10-02T16:04:59.211Z,1.90
2018-10-02T16:07:29.183Z,2.57
2018-10-02T16:09:58.568Z,2.10
2018-10-02T16:13:01.395Z,2.37
2018-10-02T16:15:46.444Z,2.33
2018-10-02T16:18:16.070Z,2.73
2018-10-02T16:20:45.072Z,2.30
2018-10-02T16:23:14.499Z,2.13
2018-10-02T16:25:44.180Z,1.97
2018-10-02T16:28:13.150Z,2.30
2018-10-02T16:30:41.842Z,2.03
2018-10-02T16:33:10.538Z,2.60
2018-10-02T16:35:40.175Z,1.73
2018-10-02T16:38:09.761Z,3.00
2018-10-02T16:40:38.610Z,1.83
2018-10-02T16:43:07.587Z,2.30
2018-10-02T16:45:36.728Z,1.80
2018-10-02T16:48:06.831Z,2.40
2018-10-02T16:50:35.678Z,2.60
2018-10-02T16:53:04.820Z,2.27
2018-10-02T16:55:33.993Z,2.33
2018-10-02T16:58:02.916Z,2.20
2018-10-02T17:00:32.067Z,3.20
2018-10-02T17:03:01.727Z,2.47
2018-10-02T17:05:31.295Z,2.40
2018-10-02T17:08:00.925Z,2.27
2018-10-02T17:10:30.601Z,2.10
2018-10-02T17:13:00.491Z,2.37
2018-10-02T17:15:29.348Z,1.67
2018-10-02T17:17:59.318Z,2.97
2018-10-02T17:20:36.660Z,2.00
2018-10-02T17:23:13.390Z,2.50
2018-10-02T17:25:43.251Z,2.33
2018-10-02T17:28:13.341Z,1.80
2018-10-02T17:30:45.779Z,2.53
2018-10-02T17:33:27.321Z,2.30
2018-10-02T17:36:06.492Z,2.40
2018-10-02T17:38:42.137Z,2.07
2018-10-02T17:41:14.496Z,2.13
2018-10-02T17:43:48.072Z,2.53
2018-10-02T17:46:19.544Z,2.27
2018-10-02T17:48:52.329Z,2.17
2018-10-02T17:51:22.463Z,2.40
2018-10-02T17:54:10.245Z,2.57
2018-10-02T17:56:44.315Z,2.50
2018-10-02T17:59:26.770Z,2.40
2018-10-02T18:05:03.352Z,2.40
2018-10-02T18:07:32.914Z,2.30
2018-10-02T18:10:22.053Z,2.50
2018-10-02T18:13:15.159Z,2.40
2018-10-02T18:15:54.110Z,2.30
2018-10-02T18:18:28.072Z,2.30
2018-10-02T18:21:06.289Z,2.47
2018-10-02T18:23:38.450Z,3.03
2018-10-02T18:26:08.711Z,2.63
2018-10-02T18:28:49.175Z,2.53
2018-10-02T18:31:29.970Z,2.40
2018-10-02T18:34:09.809Z,2.47
2018-10-02T18:37:01.100Z,2.70
2018-10-02T18:39:31.584Z,2.50
2018-10-02T18:42:02.031Z,2.50
2018-10-02T18:44:31.308Z,3.07
2018-10-02T18:47:00.586Z,2.57
2018-10-02T18:49:29.685Z,2.10
2018-10-02T18:51:58.677Z,3.20
2018-10-02T18:54:28.024Z,2.77
2018-10-02T18:56:57.217Z,2.60
2018-10-02T18:59:27.568Z,2.60
2018-10-02T19:01:57.298Z,2.63
2018-10-02T19:04:28.447Z,2.43
2018-10-02T19:07:01.263Z,2.30
2018-10-02T19:09:35.315Z,2.33
2018-10-02T19:12:14.023Z,2.80
2018-10-02T19:14:46.639Z,2.70
2018-10-02T19:17:16.447Z,2.93
2018-10-02T19:19:50.706Z,3.67
2018-10-02T19:22:23.905Z,2.73
2018-10-02T19:24:52.830Z,2.00
2018-10-02T19:27:22.332Z,3.37
2018-10-02T19:29:56.230Z,3.00
2018-10-02T19:32:26.335Z,2.40
2018-10-02T19:34:55.403Z,2.77
2018-10-02T19:37:29.479Z,3.20
2018-10-02T19:39:58.782Z,2.53
2018-10-02T19:42:28.419Z,2.37
2018-10-02T19:44:57.227Z,2.07
2018-10-02T19:47:26.655Z,3.40
2018-10-02T19:49:55.646Z,2.77
2018-10-02T19:52:24.511Z,3.67
2018-10-02T19:54:53.719Z,2.13
2018-10-02T19:57:24.272Z,3.13
2018-10-02T19:59:55.054Z,3.30
2018-10-02T20:02:24.564Z,3.17
2018-10-02T20:04:54.556Z,2.77
2018-10-02T20:07:23.328Z,2.47
2018-10-02T20:09:52.576Z,3.10
2018-10-02T20:12:22.827Z,3.30
2018-10-02T20:15:11.660Z,3.40
2018-10-02T20:17:42.028Z,2.93
2018-10-02T20:20:11.773Z,2.57
2018-10-02T20:22:40.877Z,2.90
2018-10-02T20:25:10.029Z,2.90
2018-10-02T20:30:54.223Z,2.50
2018-10-02T20:33:34.479Z,3.20
2018-10-02T20:36:32.889Z,2.60
2018-10-02T20:39:14.714Z,3.00
2018-10-02T20:41:44.180Z,2.90
2018-10-02T20:44:13.405Z,2.53
2018-10-02T20:46:42.474Z,3.47
2018-10-02T20:49:11.380Z,2.50
2018-10-02T20:58:34.031Z,3.27
2018-10-02T21:01:03.815Z,3.50
2018-10-02T21:03:33.998Z,3.27
2018-10-02T21:06:02.630Z,2.87
2018-10-02T21:08:34.914Z,3.30
2018-10-02T21:11:03.950Z,4.07
2018-10-02T21:13:45.526Z,3.97
2018-10-02T21:16:15.102Z,2.90
2018-10-02T21:18:44.281Z,3.87
2018-10-02T21:21:13.138Z,3.77
2018-10-02T21:23:42.791Z,3.80
2018-10-02T21:26:12.301Z,3.83
2018-10-02T21:28:41.595Z,3.83
2018-10-02T21:31:34.511Z,3.40
2018-10-02T21:34:04.074Z,3.83
2018-10-02T21:36:33.078Z,3.43
2018-10-02T21:39:02.651Z,3.57
2018-10-02T21:41:34.378Z,4.07
2018-10-02T21:44:06.614Z,4.00
2018-10-02T21:46:38.389Z,3.13
2018-10-02T21:49:08.674Z,2.77
2018-10-02T21:51:37.778Z,3.87
2018-10-02T21:54:06.603Z,3.03
2018-10-02T21:56:35.654Z,3.33
2018-10-02T21:59:05.426Z,4.50
2018-10-02T22:01:34.740Z,4.13
2018-10-02T22:04:03.464Z,3.43
2018-10-02T22:06:32.318Z,3.73
2018-10-02T22:09:01.891Z,3.00
2018-10-02T22:11:30.955Z,5.03
2018-10-02T22:14:00.339Z,3.27
2018-10-02T22:16:29.452Z,3.10
2018-10-02T22:18:59.150Z,3.53
2018-10-02T22:21:33.097Z,3.20
2018-10-02T22:24:04.406Z,4.43
2018-10-02T22:26:33.749Z,3.37
2018-10-02T22:29:02.947Z,4.03
2018-10-02T22:31:32.734Z,3.67
2018-10-02T22:34:01.608Z,3.70
2018-10-02T22:36:30.165Z,3.90
2018-10-02T22:38:59.140Z,3.83
2018-10-02T22:41:28.306Z,3.80
2018-10-02T22:43:57.068Z,4.10
2018-10-02T22:46:25.608Z,3.43
2018-10-02T22:48:54.405Z,3.13
2018-10-02T22:51:23.136Z,3.97
2018-10-02T22:53:52.316Z,3.77
2018-10-02T22:56:21.062Z,3.67
2018-10-02T22:58:49.804Z,3.53
2018-10-02T23:01:19.499Z,3.60
2018-10-02T23:03:48.656Z,3.93
2018-10-02T23:06:18.078Z,4.00
2018-10-02T23:08:47.202Z,3.57
2018-10-02T23:11:16.882Z,3.30
2018-10-02T23:13:45.681Z,3.93
2018-10-02T23:16:14.997Z,3.53
2018-10-02T23:18:43.681Z,3.40
2018-10-02T23:21:12.676Z,4.10
2018-10-02T23:23:47.901Z,4.30
2018-10-02T23:26:17.511Z,3.47
2018-10-02T23:28:46.911Z,5.97
2018-10-02T23:31:15.758Z,3.27
2018-10-02T23:33:44.982Z,4.20
2018-10-02T23:36:13.871Z,3.17
2018-10-02T23:38:42.643Z,4.13
2018-10-02T23:41:11.485Z,3.57
2018-10-02T23:43:41.227Z,3.63
2018-10-02T23:46:10.718Z,3.97
2018-10-02T23:48:39.278Z,3.93
2018-10-02T23:51:07.846Z,3.50
2018-10-02T23:53:36.428Z,3.67
2018-10-02T23:56:05.560Z,3.67
2018-10-02T23:58:34.017Z,4.40
